Time;durP1;ratioP1;P1;durP2;ratioP2;P2;SDS_P1;SDS_P2;PMS_P1;PMS_P2;Temp;Humidity;BMP_temperature;BMP_pressure;BME280_temperature;BME280_humidity;BME280_pressure;Samples;Min_cycle;Max_cycle;Signal;HPM_P1;HPM_P2
2022/08/30 00:01:01;;;;;;;;;;;;;;;24.34;64.25;100557.66;5408578;32;34971;-70
2022/08/30 00:02:30;;;;;;;;;;;;;;;24.35;64.72;100562.06;5369312;32;45613;-85
2022/08/30 00:05:32;;;;;;;;;;;;;;;24.12;65.61;100558.81;5384682;32;35781;-79
2022/08/30 00:08:35;;;;;;;;;;;;;;;24.61;64.75;100558.75;5403445;32;35436;-79
2022/08/30 00:11:37;;;;;;;;;;;;;;;24.46;63.33;100555.66;5381196;32;35067;-85
2022/08/30 00:14:38;;;;;;;;;;;;;;;24.26;64.76;100558.34;5408399;32;35380;-84
2022/08/30 00:17:40;;;;;;;;;;;;;;;24.03;66.94;100556.97;5398276;32;34993;-70
2022/08/30 00:20:42;;;;;;;;;;;;;;;23.87;67.80;100562.06;5407739;32;35704;-70
2022/08/30 00:23:44;;;;;;;;;;;;;;;24.62;65.09;100563.13;5397419;32;35457;-80
2022/08/30 00:26:46;;;;;;;;;;;;;;;24.23;65.71;100569.41;5396336;32;34550;-71
2022/08/30 00:29:48;;;;;;;;;;;;;;;23.94;67.13;100552.44;5403079;32;35262;-86
2022/08/30 00:32:50;;;;;;;;;;;;;;;23.87;66.50;100544.12;5381731;32;35005;-70
2022/08/30 00:35:52;;;;;;;;;;;;;;;24.41;63.99;100552.56;5394686;32;34275;-85
2022/08/30 00:38:53;;;;;;;;;;;;;;;25.35;60.55;100553.31;5391280;32;34891;-70
2022/08/30 00:41:55;;;;;;;;;;;;;;;24.72;62.00;100561.22;5397770;32;35047;-70
2022/08/30 00:44:58;;;;;;;;;;;;;;;25.37;59.77;100562.94;5397943;32;44216;-79
2022/08/30 00:48:00;;;;;;;;;;;;;;;24.87;61.03;100557.09;5372855;32;34509;-84
2022/08/30 00:51:03;;;;;;;;;;;;;;;24.57;62.24;100560.88;5403829;32;35035;-70
2022/08/30 00:54:05;;;;;;;;;;;;;;;24.40;62.87;100566.97;5399961;32;35077;-69
2022/08/30 00:57:07;;;;;;;;;;;;;;;23.99;64.64;100560.94;5406845;32;35467;-71
2022/08/30 01:00:09;;;;;;;;;;;;;;;24.35;63.33;100553.16;5388334;32;35061;-71
2022/08/30 01:03:11;;;;;;;;;;;;;;;23.63;66.10;100557.09;5377197;32;35391;-84
2022/08/30 01:06:14;;;;;;;;;;;;;;;23.80;66.14;100553.72;5405947;32;35463;-70
2022/08/30 01:09:16;;;;;;;;;;;;;;;23.76;67.03;100566.59;5383163;32;34972;-85
2022/08/30 01:12:18;;;;;;;;;;;;;;;24.21;65.22;100560.62;5408108;32;34910;-71
2022/08/30 01:15:20;;;;;;;;;;;;;;;24.45;63.94;100562.03;5389540;32;34832;-71
2022/08/30 01:18:22;;;;;;;;;;;;;;;23.68;67.72;100552.16;5400809;32;34960;-70
2022/08/30 01:21:31;;;;;;;;;;;;;;;24.05;66.33;100563.91;5386993;32;34434;-80
2022/08/30 01:24:34;;;;;;;;;;;;;;;23.88;67.40;100561.06;5399713;32;44492;-85
2022/08/30 01:27:37;;;;;;;;;;;;;;;23.12;72.72;100564.31;5403282;32;34458;-70
2022/08/30 01:30:39;;;;;;;;;;;;;;;23.03;72.97;100565.13;5405537;32;34359;-70
2022/08/30 01:33:41;;;;;;;;;;;;;;;24.15;68.43;100542.41;5404595;32;35605;-69
2022/08/30 01:36:43;;;;;;;;;;;;;;;23.04;72.71;100558.78;5400026;32;34764;-85
2022/08/30 01:39:46;;;;;;;;;;;;;;;22.79;74.17;100553.84;5399159;32;35398;-85
2022/08/30 01:42:48;;;;;;;;;;;;;;;22.94;73.76;100550.72;5398992;32;35401;-70
2022/08/30 01:45:50;;;;;;;;;;;;;;;22.64;75.37;100550.69;5399001;32;35665;-71
2022/08/30 01:48:54;;;;;;;;;;;;;;;23.18;73.37;100544.97;5389609;32;35148;-70
2022/08/30 01:51:57;;;;;;;;;;;;;;;23.24;71.97;100552.47;5386061;32;34763;-71
2022/08/30 01:55:02;;;;;;;;;;;;;;;23.60;70.21;100543.94;5395015;32;46034;-85
2022/08/30 01:58:04;;;;;;;;;;;;;;;23.80;69.70;100547.50;5401928;32;35704;-69
2022/08/30 02:01:07;;;;;;;;;;;;;;;23.72;70.06;100546.38;5399162;32;35777;-70
2022/08/30 02:04:10;;;;;;;;;;;;;;;24.05;68.69;100547.78;5385103;32;34494;-69
2022/08/30 02:07:12;;;;;;;;;;;;;;;23.18;73.25;100547.66;5397141;32;34887;-70
2022/08/30 02:10:17;;;;;;;;;;;;;;;23.83;69.69;100536.47;5398896;32;35490;-85
2022/08/30 02:13:19;;;;;;;;;;;;;;;23.39;72.31;100538.69;5403215;32;35043;-70
2022/08/30 02:16:21;;;;;;;;;;;;;;;23.97;69.41;100538.75;5410980;32;34548;-85
2022/08/30 02:19:23;;;;;;;;;;;;;;;24.02;69.13;100537.34;5397956;32;35500;-86
2022/08/30 02:22:25;;;;;;;;;;;;;;;23.81;69.25;100538.47;5413749;32;35768;-70
2022/08/30 02:25:27;;;;;;;;;;;;;;;23.03;73.32;100543.69;5391162;32;44152;-70
2022/08/30 02:28:29;;;;;;;;;;;;;;;22.63;76.95;100536.44;5405558;32;34651;-86
2022/08/30 02:31:31;;;;;;;;;;;;;;;22.38;77.90;100539.56;5406366;32;35327;-70
2022/08/30 02:34:33;;;;;;;;;;;;;;;23.34;73.25;100535.59;5398352;32;34274;-79
2022/08/30 02:37:35;;;;;;;;;;;;;;;23.66;71.43;100535.37;5405553;32;34776;-79
2022/08/30 02:40:37;;;;;;;;;;;;;;;23.54;72.06;100537.31;5379387;32;34963;-70
2022/08/30 02:43:39;;;;;;;;;;;;;;;23.64;71.69;100537.34;5420919;32;34923;-85
2022/08/30 02:46:41;;;;;;;;;;;;;;;22.98;75.14;100553.97;5393233;32;35116;-85
2022/08/30 02:49:43;;;;;;;;;;;;;;;23.14;74.79;100546.25;5384489;32;35404;-78
2022/08/30 02:52:45;;;;;;;;;;;;;;;24.04;69.88;100534.50;5406923;32;35357;-79
2022/08/30 02:55:49;;;;;;;;;;;;;;;22.53;75.80;100548.94;5399522;32;35145;-69
2022/08/30 02:58:51;;;;;;;;;;;;;;;22.07;79.38;100544.81;5401291;32;35373;-70
2022/08/30 03:01:52;;;;;;;;;;;;;;;22.90;75.31;100543.06;5373163;32;35562;-85
2022/08/30 03:04:56;;;;;;;;;;;;;;;22.43;77.30;100540.84;5400433;32;35707;-85
2022/08/30 03:07:59;;;;;;;;;;;;;;;22.40;77.25;100540.25;5389089;32;44314;-86
2022/08/30 03:11:01;;;;;;;;;;;;;;;22.13;77.76;100544.31;5402785;32;36964;-86
2022/08/30 03:14:03;;;;;;;;;;;;;;;22.42;76.51;100544.53;5400377;32;34260;-85
2022/08/30 03:17:05;;;;;;;;;;;;;;;22.47;77.12;100546.78;5392132;32;35514;-79
2022/08/30 03:20:16;;;;;;;;;;;;;;;22.23;77.99;100548.91;5404753;32;34878;-70
2022/08/30 03:23:18;;;;;;;;;;;;;;;23.05;73.89;100547.06;5383188;32;34628;-78
2022/08/30 03:26:22;;;;;;;;;;;;;;;23.66;70.07;100540.75;5398816;32;35295;-86
2022/08/30 03:29:24;;;;;;;;;;;;;;;22.44;75.55;100553.25;5392025;32;34996;-85
2022/08/30 03:32:26;;;;;;;;;;;;;;;22.40;76.37;100567.88;5387269;32;35054;-69
2022/08/30 03:35:29;;;;;;;;;;;;;;;23.25;72.23;100561.41;5396480;32;44600;-85
2022/08/30 03:38:33;;;;;;;;;;;;;;;22.35;76.87;100567.44;5404732;32;35544;-70
2022/08/30 03:41:35;;;;;;;;;;;;;;;22.74;74.05;100567.66;5406658;32;34824;-85
2022/08/30 03:44:37;;;;;;;;;;;;;;;23.15;72.64;100574.75;5381442;32;35525;-69
2022/08/30 03:47:39;;;;;;;;;;;;;;;23.83;69.15;100566.00;5402574;32;34359;-85
2022/08/30 03:50:42;;;;;;;;;;;;;;;23.78;69.27;100567.28;5398969;32;35779;-70
2022/08/30 03:53:44;;;;;;;;;;;;;;;23.05;72.65;100570.34;5383939;32;34746;-70
2022/08/30 03:56:46;;;;;;;;;;;;;;;22.59;74.50;100572.50;5408385;32;34892;-86
2022/08/30 03:59:48;;;;;;;;;;;;;;;22.22;76.32;100576.63;5386760;32;36062;-70
2022/08/30 04:02:50;;;;;;;;;;;;;;;22.12;77.12;100580.09;5385136;32;34859;-86
2022/08/30 04:05:53;;;;;;;;;;;;;;;23.15;72.15;100574.75;5387380;32;34965;-86
2022/08/30 04:08:55;;;;;;;;;;;;;;;23.25;71.03;100588.22;5398025;32;35004;-71
2022/08/30 04:11:57;;;;;;;;;;;;;;;23.04;72.34;100588.25;5400405;32;36886;-79
2022/08/30 04:14:58;;;;;;;;;;;;;;;22.31;75.76;100579.41;5392949;32;43346;-86
2022/08/30 04:18:00;;;;;;;;;;;;;;;22.15;77.06;100576.31;5419294;32;35390;-71
2022/08/30 04:21:03;;;;;;;;;;;;;;;22.66;74.85;100596.94;5388085;32;34178;-71
2022/08/30 04:24:05;;;;;;;;;;;;;;;23.28;72.17;100595.97;5421479;32;36263;-70
2022/08/30 04:27:07;;;;;;;;;;;;;;;22.70;73.67;100609.94;5390980;32;34706;-70
2022/08/30 04:30:09;;;;;;;;;;;;;;;22.88;73.38;100614.72;5381306;32;34956;-86
2022/08/30 04:33:12;;;;;;;;;;;;;;;23.19;71.61;100621.78;5390142;32;35339;-70
2022/08/30 04:36:14;;;;;;;;;;;;;;;23.38;71.43;100618.31;5390350;32;34635;-87
2022/08/30 04:39:16;;;;;;;;;;;;;;;23.10;72.37;100624.41;5398409;32;35624;-70
2022/08/30 04:42:18;;;;;;;;;;;;;;;22.95;73.50;100634.66;5381687;32;35616;-70
2022/08/30 04:45:20;;;;;;;;;;;;;;;23.20;72.67;100639.56;5404765;32;35003;-85
2022/08/30 04:48:22;;;;;;;;;;;;;;;23.04;71.93;100638.34;5380988;32;35153;-71
2022/08/30 04:51:24;;;;;;;;;;;;;;;24.08;68.03;100639.75;5390077;32;34709;-78
2022/08/30 04:54:27;;;;;;;;;;;;;;;24.01;67.26;100639.47;5389506;32;34929;-79
2022/08/30 04:57:29;;;;;;;;;;;;;;;23.13;72.69;100646.44;5388247;32;42735;-70
2022/08/30 05:00:31;;;;;;;;;;;;;;;24.21;67.85;100638.50;5409203;32;35388;-70
2022/08/30 05:03:33;;;;;;;;;;;;;;;25.16;63.31;100639.50;5369987;32;34817;-77
2022/08/30 05:06:35;;;;;;;;;;;;;;;25.67;61.20;100639.78;5398647;32;35154;-70
2022/08/30 05:09:37;;;;;;;;;;;;;;;24.84;63.63;100638.84;5378273;32;35396;-70
2022/08/30 05:12:39;;;;;;;;;;;;;;;25.55;61.54;100645.53;5387612;32;35853;-79
2022/08/30 05:15:41;;;;;;;;;;;;;;;26.37;58.82;100642.69;5409535;32;35359;-79
2022/08/30 05:18:43;;;;;;;;;;;;;;;27.22;55.64;100648.34;5397529;32;35492;-77
2022/08/30 05:21:45;;;;;;;;;;;;;;;26.30;57.89;100652.41;5396262;32;35269;-74
2022/08/30 05:24:48;;;;;;;;;;;;;;;25.70;60.43;100652.12;5388805;32;36460;-74
2022/08/30 05:27:50;;;;;;;;;;;;;;;26.25;58.50;100651.16;5403025;32;35209;-72
2022/08/30 05:30:52;;;;;;;;;;;;;;;26.72;56.46;100643.66;5385666;32;34385;-71
2022/08/30 05:33:54;;;;;;;;;;;;;;;26.10;57.78;100645.47;5381940;32;34491;-84
2022/08/30 05:36:56;;;;;;;;;;;;;;;25.95;58.61;100658.63;5398389;32;36012;-76
2022/08/30 05:39:58;;;;;;;;;;;;;;;26.39;56.12;100645.22;5381654;32;44731;-71
2022/08/30 05:43:00;;;;;;;;;;;;;;;25.58;57.34;100650.63;5403932;32;35439;-77
2022/08/30 05:46:02;;;;;;;;;;;;;;;25.37;55.99;100657.13;5390432;32;35223;-73
2022/08/30 05:49:05;;;;;;;;;;;;;;;25.04;55.93;100655.81;5394796;32;34278;-74
2022/08/30 05:52:07;;;;;;;;;;;;;;;25.92;54.30;100654.41;5393670;32;36217;-78
2022/08/30 05:55:09;;;;;;;;;;;;;;;25.19;58.08;100650.81;5383065;32;34476;-70
2022/08/30 05:58:11;;;;;;;;;;;;;;;25.38;55.63;100661.50;5420538;32;34273;-71
2022/08/30 06:01:21;;;;;;;;;;;;;;;25.45;57.60;100661.75;5370960;32;32812;-70
2022/08/30 06:04:23;;;;;;;;;;;;;;;24.82;59.93;100666.88;5389895;32;36013;-72
2022/08/30 06:07:25;;;;;;;;;;;;;;;25.07;57.80;100662.75;5383178;32;35593;-73
2022/08/30 06:10:27;;;;;;;;;;;;;;;24.18;61.96;100670.16;5391297;32;44597;-78
2022/08/30 06:13:30;;;;;;;;;;;;;;;24.24;61.95;100673.12;5396247;32;34674;-74
2022/08/30 06:16:32;;;;;;;;;;;;;;;24.30;62.43;100664.53;5390506;32;35489;-78
2022/08/30 06:19:35;;;;;;;;;;;;;;;24.19;62.47;100664.66;5404236;32;35680;-71
2022/08/30 06:22:37;;;;;;;;;;;;;;;24.47;61.17;100668.38;5388124;32;36156;-74
2022/08/30 06:25:39;;;;;;;;;;;;;;;24.15;62.94;100676.69;5410703;32;34337;-75
2022/08/30 06:28:43;;;;;;;;;;;;;;;25.07;60.00;100677.03;5406025;32;35472;-77
2022/08/30 06:31:45;;;;;;;;;;;;;;;24.79;58.93;100673.38;5398047;32;35192;-74
2022/08/30 06:34:47;;;;;;;;;;;;;;;25.16;58.01;100678.00;5391648;32;34053;-75
2022/08/30 06:37:49;;;;;;;;;;;;;;;25.20;57.24;100668.66;5392191;32;34237;-75
2022/08/30 06:40:51;;;;;;;;;;;;;;;25.59;56.08;100669.31;5401284;32;36144;-75
2022/08/30 06:43:54;;;;;;;;;;;;;;;27.00;52.55;100671.31;5384688;32;35259;-73
2022/08/30 06:46:57;;;;;;;;;;;;;;;28.21;49.48;100653.91;5399250;32;34674;-74
2022/08/30 06:49:59;;;;;;;;;;;;;;;27.67;50.48;100664.22;5395675;32;44648;-76
2022/08/30 06:53:04;;;;;;;;;;;;;;;28.45;47.18;100655.78;5394241;32;34803;-83
2022/08/30 06:56:08;;;;;;;;;;;;;;;29.60;44.61;100659.94;5398254;32;32984;-77
2022/08/30 06:59:10;;;;;;;;;;;;;;;28.62;45.11;100663.91;5388969;32;34333;-73
2022/08/30 07:02:14;;;;;;;;;;;;;;;29.17;43.94;100663.13;5396296;32;36073;-71
2022/08/30 07:05:16;;;;;;;;;;;;;;;30.57;41.34;100663.03;5383909;32;34558;-70
2022/08/30 07:08:24;;;;;;;;;;;;;;;33.18;33.94;100661.28;5393200;32;35436;-75
2022/08/30 07:11:28;;;;;;;;;;;;;;;31.36;36.65;100671.56;5389402;32;34294;-74
2022/08/30 07:14:30;;;;;;;;;;;;;;;30.21;38.96;100673.69;5395983;32;45067;-74
2022/08/30 07:20:53;;;;;;;;;;;;;;;28.95;42.75;100679.09;5386563;32;34332;-73
2022/08/30 07:23:56;;;;;;;;;;;;;;;29.73;39.50;100682.91;5399544;32;35574;-73
2022/08/30 07:26:57;;;;;;;;;;;;;;;29.86;38.89;100678.59;5402810;32;43556;-71
2022/08/30 07:30:02;;;;;;;;;;;;;;;29.47;39.36;100681.31;5401032;32;34373;-74
2022/08/30 07:33:05;;;;;;;;;;;;;;;29.42;39.62;100684.53;5407001;32;36167;-77
2022/08/30 07:36:07;;;;;;;;;;;;;;;28.20;42.34;100691.88;5390076;32;34497;-78
2022/08/30 07:39:09;;;;;;;;;;;;;;;27.99;43.48;100687.81;5399949;32;34392;-85
2022/08/30 07:42:11;;;;;;;;;;;;;;;29.39;40.33;100689.47;5389618;32;34206;-79
2022/08/30 07:45:13;;;;;;;;;;;;;;;27.15;44.62;100696.72;5406889;32;34774;-79
2022/08/30 07:48:15;;;;;;;;;;;;;;;26.53;46.88;100700.44;5380267;32;34372;-82
2022/08/30 07:51:18;;;;;;;;;;;;;;;28.58;41.31;100691.25;5410553;32;35486;-74
2022/08/30 07:54:20;;;;;;;;;;;;;;;29.32;39.63;100688.47;5395107;32;35678;-78
2022/08/30 07:57:23;;;;;;;;;;;;;;;27.36;43.65;100701.72;5389087;32;34363;-77
2022/08/30 08:00:25;;;;;;;;;;;;;;;27.65;43.83;100697.81;5406915;32;35046;-78
2022/08/30 08:03:29;;;;;;;;;;;;;;;29.18;40.41;100681.94;5374335;32;44458;-79
2022/08/30 08:06:31;;;;;;;;;;;;;;;29.40;40.19;100691.16;5403422;32;36114;-79
2022/08/30 08:09:36;;;;;;;;;;;;;;;30.29;38.09;100686.31;5390521;32;34309;-85
2022/08/30 08:12:38;;;;;;;;;;;;;;;29.11;40.02;100681.78;5407307;32;36746;-79
2022/08/30 08:15:41;;;;;;;;;;;;;;;28.62;41.12;100680.13;5410240;32;33908;-71
2022/08/30 08:18:43;;;;;;;;;;;;;;;30.34;37.59;100682.03;5390122;32;34367;-72
2022/08/30 08:21:45;;;;;;;;;;;;;;;29.22;39.85;100682.41;5416941;32;34227;-87
2022/08/30 08:24:51;;;;;;;;;;;;;;;29.52;39.64;100684.37;5387353;32;35498;-74
2022/08/30 08:27:53;;;;;;;;;;;;;;;29.17;39.96;100682.06;5393960;32;34854;-75
2022/08/30 08:30:56;;;;;;;;;;;;;;;29.49;39.49;100681.97;5389595;32;34912;-81
2022/08/30 08:33:58;;;;;;;;;;;;;;;29.68;38.69;100688.84;5388144;32;47109;-83
2022/08/30 08:37:01;;;;;;;;;;;;;;;29.80;39.07;100686.59;5413934;32;33908;-87
2022/08/30 08:40:04;;;;;;;;;;;;;;;29.26;39.32;100683.75;5385644;32;36170;-85
2022/08/30 08:43:06;;;;;;;;;;;;;;;28.79;40.67;100693.47;5398982;32;34322;-80
2022/08/30 08:46:08;;;;;;;;;;;;;;;29.03;40.09;100684.47;5383631;32;36013;-74
2022/08/30 08:49:11;;;;;;;;;;;;;;;30.35;37.57;100688.31;5398205;32;35724;-81
2022/08/30 08:55:48;;;;;;;;;;;;;;;29.50;37.72;100672.84;5381986;32;33606;-74
2022/08/30 08:58:54;;;;;;;;;;;;;;;30.45;36.41;100675.34;5394723;32;34394;-82
2022/08/30 09:02:01;;;;;;;;;;;;;;;30.77;35.09;100678.81;5374177;32;34416;-88
2022/08/30 09:05:04;;;;;;;;;;;;;;;32.95;31.56;100669.72;5397114;32;43274;-78
2022/08/30 09:08:07;;;;;;;;;;;;;;;32.19;32.23;100672.16;5390626;32;35611;-81
2022/08/30 09:11:15;;;;;;;;;;;;;;;34.96;28.04;100663.59;5387207;32;35664;-89
2022/08/30 09:14:37;;;;;;;;;;;;;;;34.38;27.80;100666.09;5405344;32;35149;-80
2022/08/30 09:17:50;;;;;;;;;;;;;;;33.26;29.35;100661.09;5391901;32;35765;-85
2022/08/30 09:20:52;;;;;;;;;;;;;;;34.12;27.99;100659.56;5407013;32;34307;-81
2022/08/30 09:23:59;;;;;;;;;;;;;;;34.56;27.44;100649.97;5378345;32;34159;-84
2022/08/30 09:27:21;;;;;;;;;;;;;;;35.87;25.12;100652.56;5384692;32;44234;-74
2022/08/30 09:30:26;;;;;;;;;;;;;;;35.44;25.72;100642.28;5397903;32;34359;-76
2022/08/30 09:33:28;;;;;;;;;;;;;;;37.40;22.69;100638.41;5383739;32;43182;-74
2022/08/30 09:36:39;;;;;;;;;;;;;;;33.81;27.56;100643.72;5409603;32;35285;-90
2022/08/30 09:39:40;;;;;;;;;;;;;;;35.09;25.65;100629.97;5386526;32;35329;-79
2022/08/30 09:42:56;;;;;;;;;;;;;;;33.87;27.57;100640.19;5388232;32;34295;-76
2022/08/30 09:45:58;;;;;;;;;;;;;;;33.48;27.95;100638.19;5397400;32;44549;-77
2022/08/30 09:49:01;;;;;;;;;;;;;;;33.58;28.04;100632.34;5381760;32;34261;-75
2022/08/30 09:52:07;;;;;;;;;;;;;;;32.82;29.05;100627.72;5399083;32;34002;-87
2022/08/30 09:55:15;;;;;;;;;;;;;;;33.84;27.70;100626.13;5396279;32;34417;-81
2022/08/30 09:58:20;;;;;;;;;;;;;;;34.61;26.56;100617.44;5411196;32;35634;-85
2022/08/30 10:01:45;;;;;;;;;;;;;;;33.34;28.22;100617.34;5377406;32;34813;-86
2022/08/30 10:05:07;;;;;;;;;;;;;;;34.67;26.30;100607.56;5390629;32;34905;-82
2022/08/30 10:08:27;;;;;;;;;;;;;;;32.48;29.71;100614.09;5378327;32;34371;-75
2022/08/30 10:11:42;;;;;;;;;;;;;;;32.75;29.19;100609.66;5386312;32;45053;-77
2022/08/30 10:14:53;;;;;;;;;;;;;;;34.94;25.70;100611.09;5394002;32;35646;-80
2022/08/30 10:18:03;;;;;;;;;;;;;;;34.26;26.26;100603.13;5412836;32;34260;-76
2022/08/30 10:21:10;;;;;;;;;;;;;;;35.38;25.38;100607.59;5381989;32;43528;-78
2022/08/30 10:24:20;;;;;;;;;;;;;;;36.42;24.05;100602.78;5402213;32;32637;-83
2022/08/30 10:27:24;;;;;;;;;;;;;;;36.87;23.24;100597.91;5398088;32;34998;-76
2022/08/30 10:30:26;;;;;;;;;;;;;;;34.11;26.85;100602.50;5390173;32;34412;-80
2022/08/30 10:33:33;;;;;;;;;;;;;;;33.41;28.00;100604.62;5409190;32;45961;-79
2022/08/30 10:36:42;;;;;;;;;;;;;;;32.61;28.99;100601.41;5385773;32;35245;-89
2022/08/30 10:39:46;;;;;;;;;;;;;;;32.24;29.77;100596.28;5397674;32;34296;-73
2022/08/30 10:42:48;;;;;;;;;;;;;;;31.71;30.85;100595.75;5389691;32;34909;-76
2022/08/30 10:45:52;;;;;;;;;;;;;;;33.61;28.03;100596.50;5418730;32;35437;-82
2022/08/30 10:48:54;;;;;;;;;;;;;;;33.01;28.60;100587.25;5406607;32;35500;-81
2022/08/30 10:52:15;;;;;;;;;;;;;;;30.53;32.68;100591.22;5404190;32;35536;-82
2022/08/30 10:55:20;;;;;;;;;;;;;;;30.46;32.92;100584.81;5408017;32;35360;-83
2022/08/30 10:58:22;;;;;;;;;;;;;;;31.93;30.90;100575.72;5408072;32;35363;-81
2022/08/30 11:01:30;;;;;;;;;;;;;;;31.93;30.68;100574.88;5392817;32;35007;-80
2022/08/30 11:04:43;;;;;;;;;;;;;;;31.26;31.93;100574.12;5384831;32;44429;-82
2022/08/30 11:07:55;;;;;;;;;;;;;;;31.14;32.43;100572.06;5390117;32;36039;-73
2022/08/30 11:11:05;;;;;;;;;;;;;;;32.96;28.90;100566.06;5400450;32;44733;-76
2022/08/30 11:14:15;;;;;;;;;;;;;;;33.61;28.02;100563.81;5396575;32;35571;-74
2022/08/30 11:17:20;;;;;;;;;;;;;;;31.91;30.92;100557.94;5400311;32;34266;-75
2022/08/30 11:20:31;;;;;;;;;;;;;;;32.53;29.68;100560.78;5390555;32;35570;-72
2022/08/30 11:23:35;;;;;;;;;;;;;;;31.50;31.18;100563.97;5403559;32;44578;-76
2022/08/30 11:26:49;;;;;;;;;;;;;;;31.12;32.25;100560.56;5403434;32;34346;-76
2022/08/30 11:29:51;;;;;;;;;;;;;;;32.95;29.45;100552.66;5392951;32;36583;-72
2022/08/30 11:32:56;;;;;;;;;;;;;;;33.34;28.15;100544.63;5403452;32;34363;-76
2022/08/30 11:35:59;;;;;;;;;;;;;;;35.96;24.81;100533.69;5390187;32;44498;-80
2022/08/30 11:39:04;;;;;;;;;;;;;;;37.32;22.86;100529.06;5415445;32;33171;-76
2022/08/30 11:42:24;;;;;;;;;;;;;;;36.82;23.62;100521.03;5392977;32;34170;-78
2022/08/30 11:45:41;;;;;;;;;;;;;;;34.05;27.42;100527.81;5389382;32;44580;-75
2022/08/30 11:48:45;;;;;;;;;;;;;;;33.96;27.17;100522.81;5406606;32;34256;-73
2022/08/30 11:52:04;;;;;;;;;;;;;;;34.64;26.13;100512.44;5403594;32;34763;-80
2022/08/30 11:55:39;;;;;;;;;;;;;;;32.63;28.85;100518.75;5393335;32;36004;-71
2022/08/30 11:58:43;;;;;;;;;;;;;;;32.15;29.22;100515.91;5410771;32;34637;-71
2022/08/30 12:01:45;;;;;;;;;;;;;;;30.30;32.40;100519.91;5376045;32;34257;-79
2022/08/30 12:04:55;;;;;;;;;;;;;;;32.37;30.12;100512.09;5385873;32;35553;-76
2022/08/30 12:07:58;;;;;;;;;;;;;;;33.22;28.27;100499.97;5391990;32;47281;-71
2022/08/30 12:11:10;;;;;;;;;;;;;;;33.54;27.38;100495.69;5399462;32;34344;-71
2022/08/30 12:14:31;;;;;;;;;;;;;;;35.99;24.14;100486.72;5417748;32;34325;-70
2022/08/30 12:21:16;;;;;;;;;;;;;;;38.51;20.73;100476.91;5412692;32;34751;-70
2022/08/30 12:24:29;;;;;;;;;;;;;;;39.52;19.20;100480.87;5394724;32;35703;-65
2022/08/30 12:27:33;;;;;;;;;;;;;;;39.89;19.23;100466.69;5378059;32;44408;-71
2022/08/30 12:30:38;;;;;;;;;;;;;;;41.60;17.18;100457.25;5401821;32;34312;-69
2022/08/30 12:33:42;;;;;;;;;;;;;;;36.74;22.26;100466.59;5391344;32;35479;-73
2022/08/30 12:37:03;;;;;;;;;;;;;;;39.54;19.35;100459.47;5403372;32;35523;-85
2022/08/30 12:40:08;;;;;;;;;;;;;;;35.98;23.10;100454.97;5388639;32;44524;-73
2022/08/30 12:43:16;;;;;;;;;;;;;;;36.89;22.15;100442.41;5389885;32;34334;-75
2022/08/30 12:46:18;;;;;;;;;;;;;;;42.11;16.76;100427.28;5415513;32;34304;-78
2022/08/30 12:49:21;;;;;;;;;;;;;;;41.83;16.75;100429.31;5388851;32;34349;-69
2022/08/30 12:52:28;;;;;;;;;;;;;;;44.00;14.82;100421.09;5400099;32;34837;-76
2022/08/30 12:55:31;;;;;;;;;;;;;;;41.81;16.58;100420.50;5381377;32;44545;-69
2022/08/30 12:58:37;;;;;;;;;;;;;;;43.63;14.87;100417.81;5405412;32;34517;-67
2022/08/30 13:01:40;;;;;;;;;;;;;;;41.21;16.86;100416.06;5377545;32;34556;-66
2022/08/30 13:04:42;;;;;;;;;;;;;;;41.40;17.03;100414.62;5383758;32;34766;-73
2022/08/30 13:07:44;;;;;;;;;;;;;;;37.55;20.90;100421.41;5413245;32;34269;-76
2022/08/30 13:10:52;;;;;;;;;;;;;;;33.62;26.14;100431.97;5403332;32;35091;-69
2022/08/30 13:14:13;;;;;;;;;;;;;;;36.08;23.03;100417.00;5406757;32;34546;-73
2022/08/30 13:17:18;;;;;;;;;;;;;;;34.91;24.74;100429.41;5386056;32;34339;-85
2022/08/30 13:20:22;;;;;;;;;;;;;;;35.13;24.81;100419.00;5393826;32;34416;-69
2022/08/30 13:23:25;;;;;;;;;;;;;;;34.92;25.13;100414.72;5409853;32;34125;-72
2022/08/30 13:26:27;;;;;;;;;;;;;;;34.44;25.65;100423.28;5393923;32;35292;-75
2022/08/30 13:29:30;;;;;;;;;;;;;;;32.29;28.75;100419.78;5410836;32;44539;-64
2022/08/30 13:32:36;;;;;;;;;;;;;;;32.41;28.80;100411.91;5387829;32;34408;-73
2022/08/30 13:35:39;;;;;;;;;;;;;;;30.47;32.14;100415.69;5404158;32;35497;-72
2022/08/30 13:38:41;;;;;;;;;;;;;;;30.52;32.00;100413.22;5394556;32;34240;-73
2022/08/30 13:41:43;;;;;;;;;;;;;;;30.66;31.84;100404.25;5388587;32;34134;-70
2022/08/30 13:44:45;;;;;;;;;;;;;;;30.55;32.31;100409.31;5409451;32;35958;-69
2022/08/30 13:47:48;;;;;;;;;;;;;;;30.42;32.41;100404.56;5402352;32;34248;-73
2022/08/30 13:50:55;;;;;;;;;;;;;;;31.76;31.56;100406.66;5415976;32;35693;-68
2022/08/30 13:53:59;;;;;;;;;;;;;;;31.53;31.17;100387.84;5392488;32;45473;-71
2022/08/30 13:57:01;;;;;;;;;;;;;;;31.80;30.94;100394.34;5408922;32;34394;-73
2022/08/30 14:00:06;;;;;;;;;;;;;;;31.25;31.95;100393.25;5396001;32;35929;-75
2022/08/30 14:03:08;;;;;;;;;;;;;;;30.60;33.49;100401.44;5364828;32;35908;-73
2022/08/30 14:06:10;;;;;;;;;;;;;;;30.50;33.91;100390.88;5393695;32;34876;-71
2022/08/30 14:09:32;;;;;;;;;;;;;;;30.50;34.22;100393.59;5386643;32;46396;-73
2022/08/30 14:12:34;;;;;;;;;;;;;;;30.32;34.62;100388.56;5400979;32;35570;-71
2022/08/30 14:15:56;;;;;;;;;;;;;;;29.84;35.71;100389.94;5394046;32;34778;-73
2022/08/30 14:19:18;;;;;;;;;;;;;;;31.13;33.49;100370.34;5393441;32;35908;-72
2022/08/30 14:22:20;;;;;;;;;;;;;;;30.93;33.74;100377.44;5400846;32;33737;-72
2022/08/30 14:25:22;;;;;;;;;;;;;;;29.61;36.01;100373.72;5388084;32;32786;-73
2022/08/30 14:28:27;;;;;;;;;;;;;;;29.87;35.61;100368.72;5404220;32;34712;-71
2022/08/30 14:31:29;;;;;;;;;;;;;;;29.40;36.67;100361.72;5385127;32;44654;-70
2022/08/30 14:34:34;;;;;;;;;;;;;;;29.64;36.26;100370.66;5388920;32;35424;-70
2022/08/30 14:37:36;;;;;;;;;;;;;;;30.82;33.92;100367.94;5406586;32;35512;-71
2022/08/30 14:40:39;;;;;;;;;;;;;;;30.48;34.66;100371.25;5387902;32;36030;-71
2022/08/30 14:43:41;;;;;;;;;;;;;;;29.79;35.88;100363.41;5374293;32;923205;-73
2022/08/30 14:46:44;;;;;;;;;;;;;;;30.54;35.28;100375.94;5388605;32;35516;-73
2022/08/30 14:49:46;;;;;;;;;;;;;;;30.33;35.33;100367.72;5404770;32;35598;-70
2022/08/30 14:52:48;;;;;;;;;;;;;;;29.76;36.34;100368.34;5390712;32;34259;-70
2022/08/30 14:55:50;;;;;;;;;;;;;;;29.77;36.69;100368.16;5389350;32;35453;-70
2022/08/30 14:58:52;;;;;;;;;;;;;;;29.94;36.11;100368.81;5402294;32;34509;-71
2022/08/30 15:01:54;;;;;;;;;;;;;;;30.16;35.98;100362.50;5374419;32;34373;-71
2022/08/30 15:04:56;;;;;;;;;;;;;;;30.36;35.81;100361.94;5408756;32;36281;-75
2022/08/30 15:07:58;;;;;;;;;;;;;;;29.79;36.59;100357.12;5387303;32;46243;-72
2022/08/30 15:11:01;;;;;;;;;;;;;;;29.82;36.87;100354.03;5399124;32;34190;-72
2022/08/30 15:14:03;;;;;;;;;;;;;;;30.16;36.25;100351.66;5402561;32;35413;-73
2022/08/30 15:17:05;;;;;;;;;;;;;;;30.36;35.69;100362.75;5397882;32;35597;-73
2022/08/30 15:20:07;;;;;;;;;;;;;;;29.56;37.39;100354.47;5406782;32;35522;-70
2022/08/30 15:23:11;;;;;;;;;;;;;;;30.67;35.39;100351.72;5387748;32;35685;-73
2022/08/30 15:26:17;;;;;;;;;;;;;;;30.81;35.70;100341.00;5415891;32;34453;-72
2022/08/30 15:29:19;;;;;;;;;;;;;;;30.60;35.33;100339.06;5377099;32;35654;-72
2022/08/30 15:32:22;;;;;;;;;;;;;;;29.91;36.93;100350.22;5392883;32;35369;-70
2022/08/30 15:35:26;;;;;;;;;;;;;;;30.57;36.28;100345.69;5385048;32;34369;-72
2022/08/30 15:38:29;;;;;;;;;;;;;;;30.89;35.69;100341.69;5398590;32;44673;-73
2022/08/30 15:41:30;;;;;;;;;;;;;;;30.67;35.71;100342.69;5403045;32;34438;-68
2022/08/30 15:44:32;;;;;;;;;;;;;;;30.77;35.98;100336.97;5382829;32;34017;-75
2022/08/30 15:47:35;;;;;;;;;;;;;;;30.26;36.23;100345.09;5411294;32;34461;-74
2022/08/30 15:50:37;;;;;;;;;;;;;;;30.09;36.45;100348.00;5378594;32;34332;-66
2022/08/30 15:53:41;;;;;;;;;;;;;;;30.83;34.49;100341.63;5398640;32;34446;-66